createdAt,value
2023-05-22T00:03:00.946Z,72.01
2023-05-22T00:06:04.042Z,73.38
2023-05-22T00:09:06.600Z,72.89
2023-05-22T00:12:09.483Z,73.42
2023-05-22T00:15:12.119Z,73.67
2023-05-22T00:18:15.208Z,74.76
2023-05-22T00:21:18.630Z,76.18
2023-05-22T00:24:22.110Z,75.74
2023-05-22T00:27:24.748Z,75.87
2023-05-22T00:30:27.306Z,75.62
2023-05-22T00:33:30.197Z,76.67
2023-05-22T00:36:33.133Z,76.25
2023-05-22T00:39:35.812Z,77.00
2023-05-22T00:42:38.866Z,76.18
2023-05-22T00:45:41.308Z,76.05
2023-05-22T00:48:44.052Z,75.40
2023-05-22T00:51:46.960Z,76.03
2023-05-22T00:54:50.948Z,76.59
2023-05-22T00:57:53.891Z,75.70
2023-05-22T01:00:56.681Z,75.86
2023-05-22T01:04:05.206Z,77.12
2023-05-22T01:07:07.953Z,76.54
2023-05-22T01:10:11.057Z,76.21
2023-05-22T01:13:34.552Z,76.62
2023-05-22T01:16:51.158Z,75.81
2023-05-22T01:20:11.594Z,76.12
2023-05-22T01:23:32.477Z,75.06
2023-05-22T01:26:41.924Z,75.29
2023-05-22T01:30:04.147Z,75.38
2023-05-22T01:33:08.878Z,75.38
2023-05-22T01:36:14.592Z,75.13
2023-05-22T01:39:19.302Z,75.09
2023-05-22T01:42:22.019Z,75.62
2023-05-22T01:45:25.104Z,75.18
2023-05-22T01:48:27.661Z,74.38
2023-05-22T01:51:43.841Z,75.65
2023-05-22T01:54:58.447Z,75.62
2023-05-22T01:58:15.988Z,75.13
2023-05-22T02:01:20.508Z,74.93
2023-05-22T02:04:23.766Z,75.92
2023-05-22T02:07:28.921Z,76.07
2023-05-22T02:10:34.402Z,76.41
2023-05-22T02:13:37.960Z,76.92
2023-05-22T02:16:42.506Z,77.30
2023-05-22T02:19:45.281Z,77.99
2023-05-22T02:22:48.456Z,78.44
2023-05-22T02:25:51.384Z,78.94
2023-05-22T02:28:54.532Z,78.90
2023-05-22T02:31:57.238Z,79.67
2023-05-22T02:35:02.399Z,79.25
2023-05-22T02:38:05.607Z,79.00
2023-05-22T02:41:09.315Z,79.04
2023-05-22T02:44:11.845Z,78.59
2023-05-22T02:47:14.626Z,78.98
2023-05-22T02:50:17.346Z,79.00
2023-05-22T02:53:20.501Z,78.92
2023-05-22T02:56:24.116Z,79.00
2023-05-22T02:59:26.779Z,79.07
2023-05-22T03:02:30.203Z,79.41
2023-05-22T03:05:33.674Z,78.85
2023-05-22T03:08:41.616Z,79.46
2023-05-22T03:11:44.764Z,79.01
2023-05-22T03:14:47.829Z,79.25
2023-05-22T03:17:50.908Z,78.89
2023-05-22T03:20:53.499Z,79.60
2023-05-22T03:23:56.281Z,79.04
2023-05-22T03:27:02.075Z,78.60
2023-05-22T03:30:13.019Z,77.67
2023-05-22T03:33:19.567Z,76.59
2023-05-22T03:36:23.301Z,75.41
2023-05-22T03:39:26.071Z,74.73
2023-05-22T03:42:34.514Z,76.28
2023-05-22T03:45:37.031Z,76.55
2023-05-22T03:48:40.281Z,76.00
2023-05-22T03:51:42.813Z,73.78
2023-05-22T03:54:45.506Z,70.23
2023-05-22T03:57:48.156Z,69.60
2023-05-22T04:00:50.732Z,67.43
2023-05-22T04:03:53.350Z,66.94
2023-05-22T04:06:58.376Z,66.31
2023-05-22T04:10:01.066Z,66.12
2023-05-22T04:13:03.958Z,65.41
2023-05-22T04:16:06.614Z,65.13
2023-05-22T04:19:10.340Z,64.67
2023-05-22T04:22:12.972Z,65.52
2023-05-22T04:25:15.927Z,65.68
2023-05-22T04:28:22.329Z,64.18
2023-05-22T04:31:25.504Z,64.29
2023-05-22T04:34:28.661Z,63.96
2023-05-22T04:37:31.904Z,64.50
2023-05-22T04:40:34.798Z,64.62
2023-05-22T04:43:38.946Z,62.98
2023-05-22T04:46:42.325Z,62.80
2023-05-22T04:49:45.892Z,62.44
2023-05-22T04:52:48.451Z,63.51
2023-05-22T04:55:51.227Z,62.97
2023-05-22T04:58:54.019Z,62.91
2023-05-22T05:02:41.406Z,62.78
2023-05-22T05:05:44.967Z,61.76
2023-05-22T05:08:49.856Z,61.93
2023-05-22T05:11:53.134Z,60.95
2023-05-22T05:14:56.159Z,61.18
2023-05-22T05:17:58.810Z,60.26
2023-05-22T05:21:01.565Z,60.23
2023-05-22T05:24:04.061Z,58.43
2023-05-22T05:27:06.892Z,60.03
2023-05-22T05:30:10.884Z,57.63
2023-05-22T05:33:52.444Z,57.87
2023-05-22T05:37:24.239Z,56.41
2023-05-22T05:40:28.517Z,56.18
2023-05-22T05:43:31.103Z,56.61
2023-05-22T05:46:39.657Z,56.97
2023-05-22T05:49:42.537Z,55.48
2023-05-22T05:52:45.303Z,54.81
2023-05-22T05:55:51.847Z,53.89
2023-05-22T05:58:55.435Z,54.21
2023-05-22T06:02:21.178Z,56.35
2023-05-22T06:05:27.051Z,50.81
2023-05-22T06:08:36.547Z,49.83
2023-05-22T06:11:39.107Z,50.13
2023-05-22T06:14:42.052Z,50.50
2023-05-22T06:17:44.708Z,49.51
2023-05-22T06:20:47.386Z,47.83
2023-05-22T06:23:50.643Z,48.00
2023-05-22T06:26:53.815Z,50.11
2023-05-22T06:29:56.760Z,51.69
2023-05-22T06:33:04.344Z,43.71
2023-05-22T06:36:08.924Z,48.44
2023-05-22T06:39:12.135Z,42.52
2023-05-22T06:42:33.355Z,44.30
2023-05-22T06:45:56.147Z,40.76
2023-05-22T06:48:58.958Z,38.97
2023-05-22T06:52:08.141Z,39.20
2023-05-22T06:55:11.942Z,39.94
2023-05-22T06:58:27.446Z,38.32
2023-05-22T07:01:31.681Z,36.38
2023-05-22T07:04:41.650Z,39.23
2023-05-22T07:07:48.787Z,34.66
2023-05-22T07:10:51.891Z,37.53
2023-05-22T07:13:54.980Z,37.12
2023-05-22T07:16:58.071Z,36.42
2023-05-22T07:20:06.980Z,35.59
2023-05-22T07:23:12.344Z,35.58
2023-05-22T07:26:15.141Z,36.16
2023-05-22T07:29:24.583Z,35.81
2023-05-22T07:32:29.764Z,33.01
2023-05-22T07:35:34.704Z,34.02
2023-05-22T07:38:38.780Z,33.10
2023-05-22T07:41:41.649Z,32.43
2023-05-22T07:44:48.313Z,31.92
2023-05-22T07:47:53.960Z,32.50
2023-05-22T07:50:58.231Z,32.87
2023-05-22T07:54:01.670Z,36.29
2023-05-22T07:57:04.538Z,34.16
2023-05-22T08:00:13.674Z,33.68
2023-05-22T08:03:17.778Z,31.76
2023-05-22T08:06:23.206Z,30.47
2023-05-22T08:09:26.308Z,33.06
2023-05-22T08:12:28.785Z,32.26
2023-05-22T08:15:31.540Z,30.95
2023-05-22T08:18:34.943Z,30.57
2023-05-22T08:21:37.867Z,31.41
2023-05-22T08:24:40.453Z,32.33
2023-05-22T08:27:43.086Z,33.43
2023-05-22T08:30:45.642Z,29.27
2023-05-22T08:33:48.295Z,29.07
2023-05-22T08:36:50.910Z,28.46
2023-05-22T08:39:53.636Z,31.41
2023-05-22T08:42:57.569Z,30.47
2023-05-22T08:46:03.368Z,28.84
2023-05-22T08:49:06.090Z,27.55
2023-05-22T08:52:21.580Z,28.60
2023-05-22T08:55:24.138Z,28.83
2023-05-22T08:58:27.644Z,30.04
2023-05-22T09:01:31.101Z,27.01
2023-05-22T09:04:34.219Z,28.16
2023-05-22T09:07:38.273Z,29.55
2023-05-22T09:10:41.074Z,28.38
2023-05-22T09:13:44.840Z,25.99
2023-05-22T09:16:49.339Z,28.98
2023-05-22T09:19:51.981Z,29.76
2023-05-22T09:22:54.677Z,27.79
2023-05-22T09:25:58.956Z,26.95
2023-05-22T09:29:03.132Z,26.06
2023-05-22T09:32:14.214Z,27.22
2023-05-22T09:35:18.636Z,24.83
2023-05-22T09:38:27.579Z,27.05
2023-05-22T09:41:35.733Z,26.54
2023-05-22T09:44:39.503Z,25.68
2023-05-22T09:47:42.467Z,24.62
2023-05-22T09:50:51.016Z,25.87
2023-05-22T09:54:03.590Z,26.80
2023-05-22T09:57:09.485Z,26.22
2023-05-22T10:00:15.650Z,25.88
2023-05-22T10:03:23.655Z,28.28
2023-05-22T10:06:27.448Z,27.74
2023-05-22T10:09:35.765Z,24.55
2023-05-22T10:13:05.414Z,26.05
2023-05-22T10:16:08.521Z,25.14
2023-05-22T10:19:13.174Z,27.91
2023-05-22T10:22:21.093Z,26.44
2023-05-22T10:25:24.056Z,24.53
2023-05-22T10:28:39.774Z,25.72
2023-05-22T10:31:48.177Z,26.43
2023-05-22T10:35:10.295Z,25.12
2023-05-22T10:38:43.809Z,25.95
2023-05-22T10:41:46.429Z,24.64
2023-05-22T10:44:49.809Z,24.90
2023-05-22T10:48:12.667Z,26.36
2023-05-22T10:51:21.942Z,25.32
2023-05-22T10:54:44.603Z,26.04
2023-05-22T10:57:47.780Z,26.69
2023-05-22T11:01:07.360Z,26.49
2023-05-22T11:04:16.049Z,27.04
2023-05-22T11:07:22.837Z,28.22
2023-05-22T11:10:59.385Z,28.38
2023-05-22T11:14:04.353Z,27.62
2023-05-22T11:17:07.149Z,26.13
2023-05-22T11:20:18.488Z,27.07
2023-05-22T11:23:25.183Z,27.15
2023-05-22T11:26:28.378Z,28.67
2023-05-22T11:29:31.333Z,27.04
2023-05-22T11:32:39.894Z,26.70
2023-05-22T11:35:44.733Z,29.45
2023-05-22T11:38:47.236Z,28.38
2023-05-22T11:41:50.073Z,27.56
2023-05-22T11:44:52.784Z,26.99
2023-05-22T11:47:55.925Z,28.83
2023-05-22T11:50:59.125Z,28.18
2023-05-22T11:54:02.032Z,30.68
2023-05-22T11:57:08.663Z,29.06
2023-05-22T12:00:12.220Z,29.15
2023-05-22T12:03:14.875Z,29.53
2023-05-22T12:06:18.616Z,28.14
2023-05-22T12:09:21.339Z,29.82
2023-05-22T12:12:24.057Z,28.88
2023-05-22T12:15:26.998Z,28.56
2023-05-22T12:18:39.224Z,30.35
2023-05-22T12:21:42.307Z,29.98
2023-05-22T12:24:48.550Z,29.58
2023-05-22T12:27:51.486Z,27.27
2023-05-22T12:30:56.675Z,28.26
2023-05-22T12:33:59.286Z,27.60
2023-05-22T12:37:02.187Z,31.26
2023-05-22T12:40:05.502Z,28.95
2023-05-22T12:43:08.240Z,28.49
2023-05-22T12:46:10.988Z,27.77
2023-05-22T12:49:13.726Z,29.87
2023-05-22T12:52:16.366Z,29.46
2023-05-22T12:55:18.964Z,28.00
2023-05-22T12:58:21.568Z,30.50
2023-05-22T13:01:24.692Z,30.57
2023-05-22T13:04:27.396Z,30.95
2023-05-22T13:07:30.037Z,30.55
2023-05-22T13:10:32.767Z,30.41
2023-05-22T13:13:35.530Z,29.01
2023-05-22T13:16:38.282Z,31.66
2023-05-22T13:19:40.908Z,29.48
2023-05-22T13:22:43.766Z,31.97
2023-05-22T13:25:46.411Z,28.56
2023-05-22T13:28:49.148Z,31.92
2023-05-22T13:31:51.808Z,31.07
2023-05-22T13:34:54.555Z,30.58
2023-05-22T13:37:57.424Z,29.96
2023-05-22T13:41:00.113Z,29.18
2023-05-22T13:44:02.729Z,30.09
2023-05-22T13:47:05.633Z,31.04
2023-05-22T13:50:08.779Z,30.59
2023-05-22T13:53:11.862Z,32.68
2023-05-22T13:56:15.921Z,32.90
2023-05-22T13:59:18.516Z,31.47
2023-05-22T14:02:21.385Z,31.70
2023-05-22T14:05:24.616Z,32.33
2023-05-22T14:08:27.389Z,32.66
2023-05-22T14:11:30.330Z,32.49
2023-05-22T14:14:32.850Z,33.86
2023-05-22T14:17:35.507Z,32.03
2023-05-22T14:20:38.230Z,32.31
2023-05-22T14:23:40.896Z,32.33
2023-05-22T14:26:44.294Z,34.97
2023-05-22T14:29:47.385Z,33.96
2023-05-22T14:32:50.185Z,32.58
2023-05-22T14:35:52.776Z,33.96
2023-05-22T14:38:57.030Z,32.20
2023-05-22T14:41:59.651Z,32.45
2023-05-22T14:45:03.473Z,34.28
2023-05-22T14:48:06.177Z,33.27
2023-05-22T14:51:09.064Z,33.74
2023-05-22T14:54:13.042Z,32.78
2023-05-22T14:57:16.989Z,32.75
2023-05-22T15:00:20.084Z,33.32
2023-05-22T15:03:23.615Z,35.17
2023-05-22T15:06:26.496Z,33.37
2023-05-22T15:09:29.370Z,34.46
2023-05-22T15:12:32.064Z,33.14
2023-05-22T15:15:34.707Z,33.36
2023-05-22T15:18:37.373Z,33.84
2023-05-22T15:21:42.217Z,34.91
2023-05-22T15:24:47.511Z,34.66
2023-05-22T15:27:50.132Z,34.78
2023-05-22T15:30:53.049Z,33.04
2023-05-22T15:33:55.892Z,36.41
2023-05-22T15:36:58.595Z,37.07
2023-05-22T15:40:02.062Z,35.13
2023-05-22T15:43:07.035Z,35.62
2023-05-22T15:46:12.272Z,36.04
2023-05-22T15:49:14.884Z,36.54
2023-05-22T15:52:18.318Z,36.02
2023-05-22T15:55:21.215Z,37.01
2023-05-22T15:58:23.683Z,36.83
2023-05-22T16:01:26.486Z,36.63
2023-05-22T16:04:29.001Z,37.17
2023-05-22T16:07:31.993Z,37.49
2023-05-22T16:10:34.618Z,39.37
2023-05-22T16:13:37.240Z,38.50
2023-05-22T16:16:39.829Z,38.47
2023-05-22T16:19:43.074Z,39.22
2023-05-22T16:22:48.688Z,39.37
2023-05-22T16:25:51.886Z,38.75
2023-05-22T16:28:54.423Z,38.29
2023-05-22T16:31:57.415Z,39.74
2023-05-22T16:35:00.289Z,40.33
2023-05-22T16:38:03.244Z,40.34
2023-05-22T16:41:05.781Z,40.79
2023-05-22T16:44:08.414Z,41.87
2023-05-22T16:47:11.689Z,42.45
2023-05-22T16:50:14.473Z,42.65
2023-05-22T16:53:17.146Z,44.67
2023-05-22T16:56:20.953Z,43.56
2023-05-22T16:59:23.401Z,44.38
2023-05-22T17:02:26.247Z,44.16
2023-05-22T17:05:28.744Z,44.67
2023-05-22T17:08:32.457Z,46.10
2023-05-22T17:11:35.324Z,45.23
2023-05-22T17:14:38.081Z,45.07
2023-05-22T17:17:40.756Z,45.10
2023-05-22T17:20:44.555Z,45.51
2023-05-22T17:23:47.083Z,46.67
2023-05-22T17:26:49.689Z,47.14
2023-05-22T17:29:52.269Z,47.18
2023-05-22T17:32:57.558Z,47.15
2023-05-22T17:36:00.936Z,47.21
2023-05-22T17:39:03.692Z,47.63
2023-05-22T17:42:06.610Z,47.42
2023-05-22T17:45:10.023Z,48.09
2023-05-22T17:48:14.592Z,48.76
2023-05-22T17:51:17.481Z,49.76
2023-05-22T17:54:20.287Z,50.93
2023-05-22T17:57:23.125Z,50.81
2023-05-22T18:00:25.712Z,51.96
2023-05-22T18:03:28.655Z,53.16
2023-05-22T18:06:31.407Z,54.37
2023-05-22T18:09:34.201Z,55.81
2023-05-22T18:12:38.274Z,55.87
2023-05-22T18:15:41.662Z,59.67
2023-05-22T18:21:46.758Z,62.54
2023-05-22T18:24:49.301Z,62.73
2023-05-22T18:27:52.182Z,63.71
2023-05-22T18:30:54.998Z,62.71
2023-05-22T18:33:57.867Z,61.67
2023-05-22T18:37:00.342Z,63.98
2023-05-22T18:40:06.518Z,63.38
2023-05-22T18:43:09.198Z,63.03
2023-05-22T18:46:11.927Z,65.20
2023-05-22T18:49:14.635Z,66.20
2023-05-22T18:52:17.274Z,67.27
2023-05-22T18:55:20.004Z,66.93
2023-05-22T18:58:22.847Z,67.57
2023-05-22T19:01:25.469Z,66.77
2023-05-22T19:04:28.594Z,65.71
2023-05-22T19:07:31.096Z,65.59
2023-05-22T19:10:33.779Z,66.00
2023-05-22T19:13:36.247Z,67.63
2023-05-22T19:16:38.993Z,67.46
2023-05-22T19:19:41.538Z,68.00
2023-05-22T19:22:44.537Z,69.21
2023-05-22T19:25:48.877Z,67.17
2023-05-22T19:28:51.627Z,67.49
2023-05-22T19:31:54.308Z,67.34
2023-05-22T19:34:57.415Z,68.25
2023-05-22T19:37:59.977Z,68.18
2023-05-22T19:41:02.756Z,68.12
2023-05-22T19:44:05.780Z,69.52
2023-05-22T19:47:08.409Z,70.09
2023-05-22T19:50:11.622Z,70.34
2023-05-22T19:53:14.560Z,69.84
2023-05-22T19:56:17.088Z,69.91
2023-05-22T19:59:19.715Z,69.47
2023-05-22T20:02:22.302Z,68.47
2023-05-22T20:05:26.044Z,67.17
2023-05-22T20:08:28.608Z,67.41
2023-05-22T20:11:31.487Z,68.72
2023-05-22T20:14:34.066Z,69.17
2023-05-22T20:17:41.872Z,71.29
2023-05-22T20:20:44.605Z,72.03
2023-05-22T20:23:47.292Z,74.20
2023-05-22T20:26:49.981Z,74.26
2023-05-22T20:29:52.712Z,74.82
2023-05-22T20:32:55.367Z,75.41
2023-05-22T20:35:58.792Z,76.51
2023-05-22T20:39:01.880Z,75.06
2023-05-22T20:42:04.780Z,74.42
2023-05-22T20:45:08.397Z,74.16
2023-05-22T20:48:13.996Z,75.36
2023-05-22T20:51:18.539Z,74.31
2023-05-22T20:54:21.390Z,75.04
2023-05-22T20:57:25.138Z,74.61
2023-05-22T21:00:28.656Z,75.04
2023-05-22T21:03:31.184Z,74.94
2023-05-22T21:06:33.831Z,75.29
2023-05-22T21:09:36.535Z,76.27
2023-05-22T21:12:39.689Z,75.89
2023-05-22T21:15:42.442Z,76.38
2023-05-22T21:18:45.597Z,76.03
2023-05-22T21:21:48.193Z,76.04
2023-05-22T21:24:50.909Z,77.50
2023-05-22T21:27:54.554Z,78.89
2023-05-22T21:30:57.300Z,76.93
2023-05-22T21:34:00.223Z,77.44
2023-05-22T21:37:03.223Z,78.18
2023-05-22T21:40:09.383Z,78.14
2023-05-22T21:43:12.006Z,78.43
2023-05-22T21:46:14.591Z,78.45
2023-05-22T21:49:17.106Z,77.60
2023-05-22T21:52:19.657Z,77.03
2023-05-22T21:55:22.411Z,76.30
2023-05-22T21:58:24.973Z,75.68
2023-05-22T22:01:27.694Z,76.29
2023-05-22T22:04:30.158Z,77.89
2023-05-22T22:07:32.984Z,78.50
2023-05-22T22:10:35.694Z,77.36
2023-05-22T22:13:38.739Z,77.37
2023-05-22T22:16:41.570Z,77.83
2023-05-22T22:19:44.941Z,77.32
2023-05-22T22:22:47.617Z,78.35
2023-05-22T22:25:50.318Z,79.26
2023-05-22T22:28:52.998Z,79.76
2023-05-22T22:31:56.125Z,79.34
2023-05-22T22:34:58.821Z,80.88
2023-05-22T22:38:01.722Z,81.92
2023-05-22T22:41:05.124Z,81.78
2023-05-22T22:44:08.017Z,81.33
2023-05-22T22:47:10.559Z,81.10
2023-05-22T22:50:13.122Z,82.40
2023-05-22T22:53:15.853Z,81.83
2023-05-22T22:56:18.684Z,82.78
2023-05-22T22:59:21.637Z,83.68
2023-05-22T23:02:24.580Z,83.90
2023-05-22T23:05:27.119Z,83.71
2023-05-22T23:08:29.731Z,84.22
2023-05-22T23:11:37.529Z,83.78
2023-05-22T23:14:40.552Z,83.16
2023-05-22T23:17:43.237Z,84.20
2023-05-22T23:20:46.458Z,85.13
2023-05-22T23:23:49.264Z,85.47
2023-05-22T23:26:53.023Z,85.51
2023-05-22T23:29:55.842Z,85.31
2023-05-22T23:32:59.011Z,84.75
2023-05-22T23:36:01.816Z,85.45
2023-05-22T23:39:04.793Z,85.60
2023-05-22T23:42:12.001Z,85.21
2023-05-22T23:45:15.069Z,86.04
2023-05-22T23:48:17.812Z,85.04
2023-05-22T23:51:20.683Z,84.62
2023-05-22T23:54:23.384Z,84.87
2023-05-22T23:57:26.090Z,84.20
